Terminal Aerodrome Forecast
Issued by NWS

Home | Current Version | Previous Version | Text Only | Print | Product List | Glossary On
Versions: 1 2 3 4 5 6 7 8 9 10 11 12 13 14 15 16 17
887
FTUS41 KGYX 280520
TAFPSM
TAF
KPSM 280520Z 2806/2906 13001KT P6SM FEW080 BKN250
     FM281500 19007KT P6SM SCT050
     FM290000 12004KT 6SM HZ BKN250 PROB30 2900/2904 3SM -TSRA
      OVC045CB=

USA.gov is the U.S. government's official web portal to all federal, state and local government web resources and services.